sim
Sign-in with your pilot id or email,
or register
Callsign
Passwort

Schedule Details

Flight Number: DLH1937
Departure: Trieste Friuli Venezia Giulia Airport (LIPQ) at 15:45
Arrival: Munich Airport (EDDM) at 16:45
Route: Lufthansa Passenger Schedule. Enter filed route here before submitting Pirep.

Weather Information
Getting current METAR information for LIPQ 221920Z AUTO 12004KT 9999 FEW038/// BKN049/// BKN076/// 19/18 Q1013
Getting current METAR information for EDDM 221920Z VRB02KT CAVOK 17/15 Q1010 NOSIG

Schedule Frequency

Route Map